Time;durP1;ratioP1;P1;durP2;ratioP2;P2;SDS_P1;SDS_P2;PMS_P1;PMS_P2;Temp;Humidity;BMP_temperature;BMP_pressure;BME280_temperature;BME280_humidity;BME280_pressure;Samples;Min_cycle;Max_cycle;Signal;HPM_P1;HPM_P2
2023/12/30 00:01:38;;;;;;;3.58;1.80;;;13.30;67.50;;;;;;2534333;54;21440;-67
2023/12/30 00:04:04;;;;;;;3.53;1.65;;;13.30;67.50;;;;;;2288141;55;21560;-68
2023/12/30 00:06:33;;;;;;;3.28;1.65;;;13.30;67.60;;;;;;2300177;56;20959;-68
2023/12/30 00:09:01;;;;;;;3.00;1.50;;;13.20;67.50;;;;;;2300568;55;21039;-68
2023/12/30 00:11:28;;;;;;;3.72;1.70;;;13.20;67.40;;;;;;2300297;56;21015;-68
2023/12/30 00:13:54;;;;;;;3.72;1.90;;;13.10;67.30;;;;;;2300399;55;21036;-67
2023/12/30 00:16:21;;;;;;;4.32;1.95;;;13.20;67.50;;;;;;2295872;55;20990;-67
2023/12/30 00:18:48;;;;;;;3.17;1.62;;;13.10;67.30;;;;;;2292626;56;21009;-68
2023/12/30 00:21:21;;;;;;;3.35;1.77;;;13.10;67.40;;;;;;2289081;56;20968;-68
2023/12/30 00:23:49;;;;;;;4.30;1.98;;;13.10;67.30;;;;;;2299283;55;21047;-68
2023/12/30 00:26:22;;;;;;;3.67;1.90;;;13.00;67.50;;;;;;2267229;56;20960;-68
2023/12/30 00:28:49;;;;;;;2.90;1.52;;;13.00;67.40;;;;;;2489587;55;21475;-68
2023/12/30 00:31:26;;;;;;;6.03;1.92;;;13.00;67.60;;;;;;2261078;55;20994;-67
2023/12/30 00:33:55;;;;;;;4.07;2.00;;;13.00;67.40;;;;;;2261352;55;21504;-68
2023/12/30 00:36:24;;;;;;;5.25;1.80;;;13.00;67.80;;;;;;2260898;55;20974;-67
2023/12/30 00:38:50;;;;;;;3.10;1.60;;;13.00;67.80;;;;;;2495831;55;20978;-67
2023/12/30 00:41:16;;;;;;;3.67;2.03;;;13.00;67.80;;;;;;2495248;55;20952;-67
2023/12/30 00:43:43;;;;;;;3.45;1.62;;;13.00;67.80;;;;;;2261789;56;21000;-67
2023/12/30 00:46:09;;;;;;;3.55;1.55;;;13.00;67.80;;;;;;2260850;55;21022;-68
2023/12/30 00:48:35;;;;;;;3.78;1.70;;;13.00;67.80;;;;;;2523689;54;20971;-67
2023/12/30 00:51:03;;;;;;;4.30;1.60;;;13.00;67.80;;;;;;2300437;55;21059;-67
2023/12/30 00:53:29;;;;;;;6.85;2.28;;;13.00;67.70;;;;;;2299750;55;20951;-68
2023/12/30 00:55:56;;;;;;;4.78;1.92;;;13.00;67.60;;;;;;2300473;55;21030;-68
2023/12/30 00:58:22;;;;;;;3.25;1.40;;;13.00;67.50;;;;;;2537891;54;21477;-67
2023/12/30 01:00:50;;;;;;;3.12;1.48;;;13.00;67.50;;;;;;2285150;55;21460;-67
2023/12/30 01:03:16;;;;;;;3.00;1.30;;;13.10;67.60;;;;;;2537217;54;20943;-68
2023/12/30 01:05:44;;;;;;;3.55;1.40;;;13.10;67.60;;;;;;2299703;56;21437;-67
2023/12/30 01:08:10;;;;;;;2.65;1.40;;;13.10;67.50;;;;;;2537114;54;21031;-68
2023/12/30 01:10:37;;;;;;;3.40;1.50;;;13.10;67.50;;;;;;2537972;54;20988;-68
2023/12/30 01:13:07;;;;;;;3.17;1.27;;;13.10;67.30;;;;;;2300342;56;21039;-67
2023/12/30 01:15:36;;;;;;;3.97;1.58;;;13.10;67.30;;;;;;2537378;54;20919;-68
2023/12/30 01:18:03;;;;;;;3.95;1.55;;;13.10;67.30;;;;;;2300669;55;21004;-69
2023/12/30 01:20:30;;;;;;;4.45;1.60;;;13.10;67.20;;;;;;2532052;54;20980;-68
2023/12/30 01:22:56;;;;;;;5.60;1.52;;;13.10;67.10;;;;;;2300090;55;20967;-68
2023/12/30 01:25:22;;;;;;;2.83;1.30;;;13.10;67.20;;;;;;2300456;56;20999;-68
2023/12/30 01:27:49;;;;;;;3.50;1.50;;;13.20;67.30;;;;;;2297234;55;21030;-67
2023/12/30 01:30:15;;;;;;;3.37;1.40;;;13.10;67.10;;;;;;2522310;54;20972;-68
2023/12/30 01:32:42;;;;;;;3.45;1.50;;;13.10;67.10;;;;;;2296109;56;20944;-68
2023/12/30 01:35:08;;;;;;;3.30;1.60;;;13.10;67.10;;;;;;2299215;56;20967;-68
2023/12/30 01:37:34;;;;;;;3.78;1.60;;;13.20;67.20;;;;;;2535689;54;20943;-67
2023/12/30 01:40:02;;;;;;;3.55;1.80;;;13.20;67.10;;;;;;2535810;54;21015;-68
2023/12/30 01:42:28;;;;;;;3.70;1.50;;;13.20;67.10;;;;;;2285227;55;21789;-68
2023/12/30 01:44:55;;;;;;;4.18;1.50;;;13.20;67.10;;;;;;2299928;55;20952;-68
2023/12/30 01:47:22;;;;;;;3.28;1.62;;;13.30;67.20;;;;;;2298369;56;21498;-68
2023/12/30 01:49:48;;;;;;;3.65;1.50;;;13.20;67.00;;;;;;2288068;56;21118;-67
2023/12/30 01:52:15;;;;;;;3.58;1.37;;;13.20;67.00;;;;;;2299639;56;21035;-67
2023/12/30 01:54:42;;;;;;;4.75;1.50;;;13.20;66.90;;;;;;2300021;55;21008;-68
2023/12/30 01:57:08;;;;;;;2.90;1.42;;;13.20;66.90;;;;;;2299814;55;21023;-68
2023/12/30 01:59:35;;;;;;;3.47;1.40;;;13.20;67.00;;;;;;2535858;54;21445;-68
2023/12/30 02:02:02;;;;;;;3.83;1.58;;;13.20;66.90;;;;;;2299751;55;20964;-67
2023/12/30 02:04:32;;;;;;;4.53;1.52;;;13.20;67.00;;;;;;2529286;54;21008;-67
2023/12/30 02:07:01;;;;;;;5.25;1.42;;;13.20;67.00;;;;;;2294520;56;20973;-67
2023/12/30 02:09:28;;;;;;;3.20;1.37;;;13.20;67.00;;;;;;2288788;56;21510;-67
2023/12/30 02:11:55;;;;;;;3.58;1.50;;;13.20;67.00;;;;;;2268089;56;20968;-67
2023/12/30 02:14:29;;;;;;;3.53;1.55;;;13.20;67.00;;;;;;2297380;55;21006;-68
2023/12/30 02:16:56;;;;;;;3.70;1.30;;;13.20;66.80;;;;;;2293346;55;21046;-68
2023/12/30 02:19:22;;;;;;;4.12;1.10;;;13.20;67.00;;;;;;2294061;56;20959;-67
2023/12/30 02:21:49;;;;;;;2.87;1.27;;;13.20;67.10;;;;;;2537431;54;20963;-67
2023/12/30 02:24:16;;;;;;;2.80;1.30;;;13.20;67.10;;;;;;2537090;54;21031;-68
2023/12/30 02:26:42;;;;;;;3.83;1.20;;;13.20;67.10;;;;;;2301014;56;21004;-68
2023/12/30 02:29:09;;;;;;;3.12;1.23;;;13.20;67.10;;;;;;2300664;55;20952;-68
2023/12/30 02:31:45;;;;;;;2.22;1.10;;;13.20;67.10;;;;;;2300390;55;21666;-67
2023/12/30 02:34:18;;;;;;;3.25;1.17;;;13.20;66.90;;;;;;2300340;55;20968;-68
2023/12/30 02:36:45;;;;;;;2.70;1.20;;;13.20;66.90;;;;;;2300868;55;20991;-69
2023/12/30 02:39:11;;;;;;;3.87;1.40;;;13.20;67.10;;;;;;2527545;54;21046;-67
2023/12/30 02:41:38;;;;;;;3.05;1.30;;;13.20;67.10;;;;;;2529364;54;21476;-68
2023/12/30 02:44:04;;;;;;;3.83;1.12;;;13.10;67.00;;;;;;2300924;56;21290;-67
2023/12/30 02:46:31;;;;;;;2.92;1.20;;;13.10;67.10;;;;;;2536993;54;21355;-67
2023/12/30 02:52:26;;;;;;;5.15;1.35;;;13.20;66.60;;;;;;2537750;54;21814;-68
2023/12/30 02:54:52;;;;;;;3.53;1.35;;;13.20;67.20;;;;;;2300875;56;21043;-69
2023/12/30 02:57:19;;;;;;;3.17;1.37;;;13.10;67.10;;;;;;2300297;56;21086;-67
2023/12/30 02:59:45;;;;;;;2.55;1.20;;;13.10;67.00;;;;;;2300627;55;21001;-67
2023/12/30 03:02:11;;;;;;;2.97;1.25;;;13.10;67.10;;;;;;2300276;56;21160;-67
2023/12/30 03:04:38;;;;;;;2.53;1.17;;;13.10;67.10;;;;;;2300699;55;20987;-67
2023/12/30 03:07:04;;;;;;;2.70;1.00;;;13.10;67.10;;;;;;2302047;55;21854;-67
2023/12/30 03:09:32;;;;;;;4.57;1.55;;;13.10;67.20;;;;;;2300664;56;20944;-68
2023/12/30 03:11:58;;;;;;;4.28;1.20;;;13.10;67.20;;;;;;2300173;55;20979;-68
2023/12/30 03:14:25;;;;;;;2.67;1.05;;;13.10;67.30;;;;;;2300096;55;21484;-68
2023/12/30 03:16:52;;;;;;;3.33;1.27;;;13.10;67.30;;;;;;2518721;54;20953;-68
2023/12/30 03:19:19;;;;;;;3.95;1.17;;;13.10;67.30;;;;;;2536914;54;20963;-68
2023/12/30 03:21:46;;;;;;;3.17;1.25;;;13.10;67.30;;;;;;2299759;55;21010;-67
2023/12/30 03:24:12;;;;;;;3.10;1.40;;;13.10;67.30;;;;;;2299865;55;20976;-67
2023/12/30 03:26:38;;;;;;;3.35;1.17;;;13.20;67.40;;;;;;2300996;55;20963;-67
2023/12/30 03:29:06;;;;;;;3.20;1.05;;;13.10;67.30;;;;;;2521340;54;20978;-68
2023/12/30 03:31:32;;;;;;;2.55;1.20;;;13.10;67.30;;;;;;2298709;56;20924;-67
2023/12/30 03:33:59;;;;;;;3.65;1.20;;;13.10;67.30;;;;;;2537536;54;21584;-69
2023/12/30 03:36:25;;;;;;;2.65;1.10;;;13.20;67.40;;;;;;2537246;54;20963;-68
2023/12/30 03:38:52;;;;;;;3.45;1.10;;;13.10;67.30;;;;;;2300600;56;20956;-68
2023/12/30 03:41:19;;;;;;;2.62;0.98;;;13.10;67.30;;;;;;2300403;56;21457;-68
2023/12/30 03:43:45;;;;;;;2.67;0.90;;;13.10;67.30;;;;;;2300309;55;21773;-68
2023/12/30 03:46:15;;;;;;;3.78;1.20;;;13.10;67.30;;;;;;2292228;56;20988;-67
2023/12/30 03:48:41;;;;;;;3.20;1.00;;;13.20;67.20;;;;;;2299866;56;20932;-69
2023/12/30 03:51:09;;;;;;;2.15;0.95;;;13.10;67.20;;;;;;2537557;54;21560;-67
2023/12/30 03:53:35;;;;;;;3.47;1.20;;;13.10;67.20;;;;;;2300443;56;20935;-67
2023/12/30 03:56:02;;;;;;;3.05;1.05;;;13.10;67.20;;;;;;2537562;54;20926;-68
2023/12/30 03:58:29;;;;;;;2.75;1.00;;;13.10;67.20;;;;;;2537533;54;21063;-68
2023/12/30 04:00:56;;;;;;;3.42;1.08;;;13.10;67.20;;;;;;2300216;56;21055;-68
2023/12/30 04:03:25;;;;;;;3.22;1.20;;;13.10;67.20;;;;;;2537463;54;21035;-68
2023/12/30 04:05:51;;;;;;;2.40;1.00;;;13.00;67.10;;;;;;2300720;55;21714;-68
2023/12/30 04:08:20;;;;;;;4.00;1.17;;;13.00;67.10;;;;;;2303112;55;20960;-68
2023/12/30 04:10:47;;;;;;;2.78;1.00;;;13.00;67.00;;;;;;2286771;56;21081;-68
2023/12/30 04:13:13;;;;;;;2.53;1.00;;;13.10;67.30;;;;;;2536109;54;20923;-68
2023/12/30 04:15:40;;;;;;;3.05;1.20;;;13.00;67.20;;;;;;2281196;55;20982;-68
2023/12/30 04:18:06;;;;;;;2.22;1.10;;;13.00;67.20;;;;;;2300376;56;21000;-68
2023/12/30 04:20:33;;;;;;;2.33;0.93;;;13.00;67.30;;;;;;2300433;56;20955;-69
2023/12/30 04:23:02;;;;;;;3.95;1.25;;;13.00;67.40;;;;;;2300140;56;21106;-68
2023/12/30 04:25:29;;;;;;;3.22;1.40;;;13.00;67.50;;;;;;2300134;56;20941;-67
2023/12/30 04:27:55;;;;;;;3.80;1.30;;;13.00;67.50;;;;;;2300723;56;21007;-67
2023/12/30 04:30:22;;;;;;;2.85;1.30;;;13.00;67.50;;;;;;2300070;55;21054;-69
2023/12/30 04:32:48;;;;;;;3.78;1.60;;;13.00;67.50;;;;;;2300503;56;21362;-69
2023/12/30 04:35:15;;;;;;;3.72;1.37;;;12.90;67.50;;;;;;2537051;54;21007;-68
2023/12/30 04:37:41;;;;;;;3.72;1.20;;;12.90;67.50;;;;;;2537776;54;20920;-69
2023/12/30 04:40:08;;;;;;;3.83;1.10;;;12.90;67.50;;;;;;2261327;56;21018;-68
2023/12/30 04:42:35;;;;;;;3.78;1.35;;;12.90;67.50;;;;;;2488989;55;21367;-69
2023/12/30 04:45:01;;;;;;;3.42;1.58;;;13.00;67.70;;;;;;2261091;56;20966;-68
2023/12/30 04:47:27;;;;;;;3.20;1.40;;;13.00;67.70;;;;;;2260936;56;20978;-67
2023/12/30 04:49:53;;;;;;;3.50;1.20;;;13.00;67.70;;;;;;2260878;56;20970;-69
2023/12/30 04:52:20;;;;;;;3.60;1.40;;;12.90;67.70;;;;;;2261479;56;20975;-66
2023/12/30 04:54:46;;;;;;;2.72;1.30;;;12.90;67.80;;;;;;2260863;56;21042;-67
2023/12/30 04:57:15;;;;;;;3.08;1.30;;;12.90;67.80;;;;;;2489599;54;20962;-67
2023/12/30 04:59:42;;;;;;;3.22;1.30;;;12.90;67.70;;;;;;2261481;56;21025;-67
2023/12/30 05:02:08;;;;;;;3.22;1.50;;;12.90;67.80;;;;;;2261949;56;20924;-67
2023/12/30 05:04:34;;;;;;;2.67;1.10;;;12.90;67.80;;;;;;2260811;56;21014;-67
2023/12/30 05:07:01;;;;;;;3.62;1.60;;;12.90;67.70;;;;;;2266571;56;20978;-68
2023/12/30 05:09:27;;;;;;;3.70;1.20;;;12.90;67.70;;;;;;2256361;55;20950;-68
2023/12/30 05:11:54;;;;;;;3.12;1.30;;;12.90;67.70;;;;;;2483908;55;21391;-67
2023/12/30 05:14:21;;;;;;;2.90;1.40;;;12.90;67.70;;;;;;2485143;55;20962;-69
2023/12/30 05:16:47;;;;;;;3.87;1.30;;;12.90;67.70;;;;;;2488034;55;21294;-67
2023/12/30 05:19:14;;;;;;;3.62;1.50;;;12.90;67.70;;;;;;2483675;55;20974;-67
2023/12/30 05:21:40;;;;;;;4.43;1.42;;;12.90;67.60;;;;;;2498359;54;20955;-67
2023/12/30 05:24:08;;;;;;;2.90;1.30;;;12.90;67.70;;;;;;2495045;54;20966;-69
2023/12/30 05:26:36;;;;;;;3.12;1.20;;;12.90;67.60;;;;;;2255816;56;21030;-67
2023/12/30 05:29:02;;;;;;;2.53;1.20;;;12.90;67.60;;;;;;2255267;56;21034;-68
2023/12/30 05:31:28;;;;;;;4.07;1.40;;;12.90;67.70;;;;;;2255600;56;21839;-69
2023/12/30 05:33:54;;;;;;;2.72;1.12;;;12.80;67.60;;;;;;2256076;55;21002;-67
2023/12/30 05:36:21;;;;;;;2.75;1.15;;;12.90;67.70;;;;;;2255235;56;21065;-67
2023/12/30 05:38:47;;;;;;;3.70;1.10;;;12.80;67.60;;;;;;2255757;55;21006;-68
2023/12/30 05:41:13;;;;;;;3.50;1.30;;;12.80;67.70;;;;;;2483283;55;21098;-68
2023/12/30 05:43:41;;;;;;;2.78;1.30;;;12.80;67.70;;;;;;2483546;55;20991;-67
2023/12/30 05:46:13;;;;;;;3.55;1.37;;;12.90;67.80;;;;;;2256316;55;20963;-69
2023/12/30 05:48:40;;;;;;;;;;;12.80;67.70;;;;;;2490970;55;20930;-67
2023/12/30 05:51:06;;;;;;;3.03;1.40;;;12.80;66.90;;;;;;2260014;55;20190;-68
2023/12/30 05:53:33;;;;;;;3.40;1.40;;;12.80;67.60;;;;;;2257104;55;21551;-67
2023/12/30 05:56:00;;;;;;;3.10;1.65;;;12.80;67.70;;;;;;2261283;55;21014;-68
2023/12/30 05:58:28;;;;;;;3.20;1.42;;;12.80;67.70;;;;;;2485845;54;21022;-69
2023/12/30 06:00:54;;;;;;;2.72;1.20;;;12.80;67.80;;;;;;2295779;55;20999;-68
2023/12/30 06:03:21;;;;;;;4.10;1.65;;;12.70;67.70;;;;;;2531689;54;21113;-67
2023/12/30 06:05:48;;;;;;;3.60;1.40;;;12.70;67.70;;;;;;2296228;56;20964;-68
2023/12/30 06:08:17;;;;;;;4.62;1.70;;;12.70;67.80;;;;;;2525150;54;21065;-68
2023/12/30 06:10:49;;;;;;;3.37;1.50;;;12.70;67.80;;;;;;2277909;57;20951;-67
2023/12/30 06:13:15;;;;;;;2.60;1.37;;;12.60;67.70;;;;;;2486285;55;20975;-67
2023/12/30 06:15:43;;;;;;;3.28;1.45;;;12.70;67.80;;;;;;2260221;55;20955;-67
2023/12/30 06:18:09;;;;;;;3.17;1.58;;;12.70;67.90;;;;;;2278844;56;21398;-69
2023/12/30 06:20:36;;;;;;;2.92;1.20;;;12.70;67.90;;;;;;2278320;56;20992;-67
2023/12/30 06:23:02;;;;;;;3.58;1.37;;;12.70;67.90;;;;;;2278068;56;21666;-68
2023/12/30 06:25:29;;;;;;;2.92;1.30;;;12.70;67.90;;;;;;2257246;56;20959;-68
2023/12/30 06:27:55;;;;;;;2.78;1.35;;;12.70;68.00;;;;;;2278390;56;20956;-68
2023/12/30 06:30:21;;;;;;;2.92;1.23;;;12.70;68.00;;;;;;2277925;56;20975;-67
2023/12/30 06:32:49;;;;;;;4.22;1.50;;;12.70;68.00;;;;;;2278044;56;21000;-67
2023/12/30 06:35:16;;;;;;;3.05;1.23;;;12.70;68.00;;;;;;2270575;56;20958;-67
2023/12/30 06:37:42;;;;;;;2.95;1.60;;;12.70;68.10;;;;;;2270532;56;20916;-67
2023/12/30 06:40:09;;;;;;;3.35;1.20;;;12.70;68.10;;;;;;2510370;54;20936;-68
2023/12/30 06:42:36;;;;;;;3.05;1.37;;;12.70;68.10;;;;;;2510100;54;20983;-68
2023/12/30 06:45:04;;;;;;;3.53;1.52;;;12.70;68.20;;;;;;2510955;54;20951;-68
2023/12/30 06:47:30;;;;;;;2.65;1.10;;;12.70;68.20;;;;;;2509912;54;21028;-67
2023/12/30 06:49:57;;;;;;;4.20;1.30;;;12.70;68.20;;;;;;2510978;55;21024;-68
2023/12/30 06:52:23;;;;;;;3.05;1.42;;;12.70;68.20;;;;;;2277387;56;20955;-68
2023/12/30 06:54:50;;;;;;;3.75;1.58;;;12.70;68.20;;;;;;2278388;56;21004;-68
2023/12/30 06:57:19;;;;;;;2.70;1.45;;;12.70;68.20;;;;;;2272766;57;20952;-67
2023/12/30 06:59:45;;;;;;;3.33;1.58;;;12.70;68.20;;;;;;2509951;55;21825;-67
2023/12/30 07:02:14;;;;;;;2.58;1.23;;;12.70;68.20;;;;;;2276834;56;20963;-68
2023/12/30 07:04:41;;;;;;;2.97;1.30;;;12.70;68.10;;;;;;2280403;55;21028;-68
2023/12/30 07:07:07;;;;;;;2.35;1.08;;;12.70;68.20;;;;;;2278407;56;21461;-68
2023/12/30 07:09:34;;;;;;;4.43;1.48;;;12.70;68.20;;;;;;2508879;54;21037;-68
2023/12/30 07:12:00;;;;;;;3.35;1.20;;;12.70;68.10;;;;;;2278109;56;20960;-67
2023/12/30 07:14:32;;;;;;;4.18;1.33;;;12.70;68.10;;;;;;2512632;55;21022;-68
2023/12/30 07:16:58;;;;;;;3.75;1.45;;;12.70;68.10;;;;;;2277001;55;20936;-68
2023/12/30 07:19:26;;;;;;;2.75;1.00;;;12.70;68.20;;;;;;2509263;54;20953;-67
2023/12/30 07:21:53;;;;;;;3.85;1.30;;;12.70;68.20;;;;;;2277426;55;20948;-67
2023/12/30 07:24:19;;;;;;;4.72;1.55;;;12.70;68.20;;;;;;2260591;56;21023;-68
2023/12/30 07:26:46;;;;;;;2.65;1.23;;;12.70;68.20;;;;;;2260699;57;21044;-67
2023/12/30 07:29:12;;;;;;;3.55;1.50;;;12.70;68.20;;;;;;2258105;55;20956;-68
2023/12/30 07:31:39;;;;;;;3.30;1.35;;;12.70;68.20;;;;;;2489379;55;20975;-67
2023/12/30 07:34:05;;;;;;;8.00;1.60;;;12.70;68.20;;;;;;2261519;57;21457;-69
2023/12/30 07:36:32;;;;;;;4.55;1.77;;;12.70;68.30;;;;;;2492415;54;20999;-68
2023/12/30 07:38:59;;;;;;;3.87;2.00;;;12.70;68.30;;;;;;2488410;55;20978;-67
2023/12/30 07:41:25;;;;;;;4.30;2.08;;;12.70;68.30;;;;;;2476575;55;21369;-67
2023/12/30 07:43:51;;;;;;;5.82;2.30;;;12.70;68.30;;;;;;2261059;57;20996;-68
2023/12/30 07:46:18;;;;;;;3.80;1.83;;;12.70;68.30;;;;;;2490537;55;20965;-68
2023/12/30 07:48:44;;;;;;;3.72;1.55;;;12.70;68.30;;;;;;2248397;56;20962;-67
2023/12/30 07:51:10;;;;;;;3.00;1.27;;;12.80;68.40;;;;;;2249130;55;21447;-67
2023/12/30 07:53:37;;;;;;;3.80;1.50;;;12.70;68.20;;;;;;2267280;55;20954;-69
2023/12/30 07:56:04;;;;;;;2.67;1.30;;;12.80;68.40;;;;;;2469053;55;20978;-67
2023/12/30 07:58:30;;;;;;;2.78;1.20;;;12.80;68.40;;;;;;2249400;56;20951;-67
2023/12/30 08:00:57;;;;;;;2.97;1.30;;;12.80;68.40;;;;;;2256097;56;21409;-67
2023/12/30 08:03:23;;;;;;;3.83;1.80;;;12.80;68.40;;;;;;2256082;57;21031;-68
2023/12/30 08:05:49;;;;;;;5.50;1.92;;;12.70;68.30;;;;;;2489438;54;20984;-67
2023/12/30 08:08:16;;;;;;;5.95;2.60;;;12.70;68.30;;;;;;2256101;57;21058;-67
2023/12/30 08:10:42;;;;;;;5.68;2.78;;;12.80;68.50;;;;;;2484092;55;21042;-68
2023/12/30 08:13:08;;;;;;;6.75;2.78;;;12.80;68.50;;;;;;2256614;56;20951;-67
2023/12/30 08:15:35;;;;;;;5.32;2.40;;;12.80;68.50;;;;;;2255278;56;20954;-68
2023/12/30 08:18:01;;;;;;;5.10;2.30;;;12.80;68.50;;;;;;2256225;56;21879;-68
2023/12/30 08:20:28;;;;;;;5.55;1.95;;;12.80;68.50;;;;;;2483606;54;20966;-68
2023/12/30 08:22:56;;;;;;;4.15;1.60;;;12.80;68.50;;;;;;2256231;56;20998;-67
2023/12/30 08:25:23;;;;;;;3.30;1.60;;;12.80;68.50;;;;;;2484208;55;21042;-67
2023/12/30 08:27:49;;;;;;;3.87;1.55;;;12.80;68.50;;;;;;2256214;56;21089;-67
2023/12/30 08:30:15;;;;;;;3.37;1.52;;;12.80;68.50;;;;;;2256720;56;21002;-68
2023/12/30 08:32:42;;;;;;;3.20;1.50;;;12.80;68.50;;;;;;2255871;56;20943;-68
2023/12/30 08:35:10;;;;;;;3.20;1.42;;;12.90;68.60;;;;;;2255804;56;22134;-69
2023/12/30 08:37:36;;;;;;;2.75;1.30;;;12.90;68.60;;;;;;2255856;56;21522;-68
2023/12/30 08:40:08;;;;;;;3.10;1.40;;;12.90;68.50;;;;;;2483601;54;20963;-68
2023/12/30 08:42:35;;;;;;;3.72;1.70;;;12.90;68.50;;;;;;2256358;56;21565;-67
2023/12/30 08:45:07;;;;;;;3.55;1.50;;;12.90;68.50;;;;;;2256581;55;21507;-67
2023/12/30 08:47:34;;;;;;;5.05;1.92;;;12.90;68.50;;;;;;2256250;56;20987;-68
2023/12/30 08:50:01;;;;;;;3.45;1.62;;;12.90;68.50;;;;;;2256553;56;20959;-68
2023/12/30 08:52:30;;;;;;;3.33;1.52;;;12.90;68.50;;;;;;2255889;56;20987;-68
2023/12/30 08:54:57;;;;;;;2.95;1.35;;;13.00;68.50;;;;;;2483630;54;21006;-67
2023/12/30 08:57:24;;;;;;;3.25;1.20;;;13.00;68.70;;;;;;2483366;55;20932;-68
2023/12/30 08:59:50;;;;;;;3.95;1.48;;;13.00;68.80;;;;;;2256391;56;21000;-67
2023/12/30 09:02:17;;;;;;;3.45;1.30;;;13.00;68.80;;;;;;2255572;56;20970;-67
2023/12/30 09:04:43;;;;;;;2.72;1.35;;;13.00;68.80;;;;;;2258617;55;20990;-67
2023/12/30 09:07:10;;;;;;;4.18;1.40;;;13.00;68.80;;;;;;2252605;56;20969;-68
2023/12/30 09:09:36;;;;;;;4.03;1.65;;;13.10;69.00;;;;;;2256454;56;20990;-66
2023/12/30 09:12:03;;;;;;;3.25;1.25;;;13.10;69.00;;;;;;2256808;55;20982;-67
2023/12/30 09:14:30;;;;;;;2.60;1.15;;;13.10;69.00;;;;;;2256494;56;21207;-67
2023/12/30 09:16:57;;;;;;;3.37;1.50;;;13.20;69.10;;;;;;2487941;54;21041;-67
2023/12/30 09:19:23;;;;;;;2.92;1.25;;;13.20;69.10;;;;;;2516254;55;20924;-68
2023/12/30 09:21:50;;;;;;;4.28;1.67;;;13.20;69.10;;;;;;2282224;55;21257;-67
2023/12/30 09:24:17;;;;;;;4.37;1.50;;;13.20;69.10;;;;;;2514773;55;21884;-67
2023/12/30 09:26:43;;;;;;;5.25;2.10;;;13.30;69.10;;;;;;2282064;55;21032;-68
2023/12/30 09:29:11;;;;;;;3.00;1.48;;;13.30;69.80;;;;;;2281799;56;20980;-67
2023/12/30 09:31:38;;;;;;;5.93;1.50;;;13.40;69.10;;;;;;2515004;55;21003;-67
2023/12/30 09:34:06;;;;;;;3.60;1.45;;;13.40;69.10;;;;;;2281445;56;20984;-68
2023/12/30 09:36:33;;;;;;;2.92;1.12;;;13.40;69.10;;;;;;2282460;56;20965;-68
2023/12/30 09:38:59;;;;;;;2.85;1.27;;;13.40;69.10;;;;;;2281846;56;20960;-68
2023/12/30 09:41:26;;;;;;;3.37;1.50;;;13.50;69.20;;;;;;2281464;55;20956;-68
2023/12/30 09:43:53;;;;;;;3.40;1.20;;;13.50;69.10;;;;;;2281544;56;20961;-68
2023/12/30 09:46:20;;;;;;;3.25;1.20;;;13.50;69.10;;;;;;2280929;56;21846;-68
2023/12/30 09:48:49;;;;;;;2.55;1.10;;;13.60;69.10;;;;;;2280908;56;22192;-68
2023/12/30 09:51:15;;;;;;;3.00;1.30;;;13.60;69.10;;;;;;2281350;56;21019;-68
2023/12/30 09:53:43;;;;;;;2.75;1.30;;;13.60;69.20;;;;;;2266459;56;21566;-67
2023/12/30 09:56:11;;;;;;;2.10;1.00;;;13.70;69.40;;;;;;2281427;55;21040;-68
2023/12/30 09:58:39;;;;;;;2.78;1.10;;;13.70;69.40;;;;;;2281528;55;21049;-69
2023/12/30 10:01:05;;;;;;;2.58;1.15;;;13.80;69.50;;;;;;2281989;56;21055;-69
2023/12/30 10:03:34;;;;;;;3.47;1.30;;;13.80;69.50;;;;;;2281457;55;20988;-68
2023/12/30 10:06:01;;;;;;;2.35;1.08;;;13.90;69.50;;;;;;2282208;56;21015;-68
2023/12/30 10:08:28;;;;;;;3.92;1.48;;;14.00;69.60;;;;;;2281832;56;21488;-68
2023/12/30 10:10:55;;;;;;;3.50;1.35;;;14.00;69.60;;;;;;2515126;55;20972;-67
2023/12/30 10:13:25;;;;;;;2.85;1.30;;;14.00;69.50;;;;;;2273433;55;21878;-69
2023/12/30 10:15:53;;;;;;;2.58;1.23;;;14.10;69.50;;;;;;2276463;55;23005;-68
2023/12/30 10:18:20;;;;;;;3.80;1.20;;;14.20;69.50;;;;;;2281421;55;21426;-69
2023/12/30 10:20:48;;;;;;;2.70;1.10;;;14.20;69.40;;;;;;2514678;55;20952;-68
2023/12/30 10:23:15;;;;;;;2.72;1.10;;;14.20;69.30;;;;;;2266767;56;21345;-67
2023/12/30 10:25:41;;;;;;;3.72;1.30;;;14.30;69.30;;;;;;2515038;54;20968;-67
2023/12/30 10:28:07;;;;;;;3.03;1.35;;;14.30;69.20;;;;;;2515127;55;21453;-68
2023/12/30 10:30:34;;;;;;;3.53;1.15;;;14.40;69.30;;;;;;2281680;56;21059;-69
2023/12/30 10:33:07;;;;;;;5.12;1.35;;;14.40;69.30;;;;;;2281525;56;21480;-68
2023/12/30 10:35:34;;;;;;;3.42;1.42;;;14.50;69.10;;;;;;2516139;54;20952;-69
2023/12/30 10:38:03;;;;;;;3.37;1.40;;;14.50;69.10;;;;;;2278532;56;20969;-68
2023/12/30 10:40:29;;;;;;;2.70;1.23;;;14.60;69.10;;;;;;2272733;56;21578;-69
2023/12/30 10:42:57;;;;;;;3.08;1.30;;;14.60;68.90;;;;;;2282008;55;20984;-67
2023/12/30 10:45:24;;;;;;;2.30;1.00;;;14.60;68.80;;;;;;2281027;56;21339;-68
2023/12/30 10:47:50;;;;;;;2.83;1.30;;;14.70;68.80;;;;;;2514474;55;20957;-69
2023/12/30 10:50:16;;;;;;;2.67;1.10;;;14.70;68.70;;;;;;2282089;56;21007;-68
2023/12/30 10:52:51;;;;;;;2.55;1.20;;;14.70;68.70;;;;;;2515032;55;21024;-69
2023/12/30 10:55:18;;;;;;;3.42;1.20;;;14.80;68.60;;;;;;2281179;56;21047;-69
2023/12/30 10:57:49;;;;;;;3.65;1.45;;;14.80;69.70;;;;;;2281774;56;21013;-68
2023/12/30 11:00:20;;;;;;;2.05;0.90;;;14.90;69.20;;;;;;2274908;56;20980;-69
2023/12/30 11:02:47;;;;;;;2.72;0.98;;;14.90;69.50;;;;;;2274372;56;21434;-68
2023/12/30 11:05:27;;;;;;;2.75;1.02;;;15.00;69.80;;;;;;2514250;55;20956;-68
2023/12/30 11:07:53;;;;;;;2.40;1.00;;;15.10;69.80;;;;;;2281388;55;20964;-68
2023/12/30 11:10:20;;;;;;;1.92;0.85;;;15.20;70.30;;;;;;2281646;55;20948;-68
2023/12/30 11:12:46;;;;;;;2.62;1.00;;;15.20;70.50;;;;;;2282145;56;21048;-68
2023/12/30 11:15:25;;;;;;;3.40;1.35;;;15.30;70.80;;;;;;2284234;56;21000;-68
2023/12/30 11:17:52;;;;;;;2.85;1.30;;;15.50;70.20;;;;;;2266700;56;20945;-68
2023/12/30 11:20:23;;;;;;;2.55;1.00;;;15.60;70.60;;;;;;2513607;55;20964;-70
2023/12/30 11:22:50;;;;;;;3.22;1.27;;;15.70;70.00;;;;;;2281708;55;21556;-68
2023/12/30 11:25:17;;;;;;;3.87;1.33;;;15.80;70.00;;;;;;2514219;54;20947;-69
2023/12/30 11:27:48;;;;;;;3.17;1.30;;;15.80;69.80;;;;;;2281837;55;20952;-68
2023/12/30 11:30:19;;;;;;;3.80;1.40;;;15.90;69.50;;;;;;2282049;56;21848;-69
2023/12/30 11:32:45;;;;;;;2.97;1.10;;;15.90;69.20;;;;;;2281401;56;21822;-68
2023/12/30 11:35:12;;;;;;;3.58;1.05;;;16.00;69.40;;;;;;2497434;54;20962;-69
2023/12/30 11:37:41;;;;;;;3.75;1.20;;;16.00;69.20;;;;;;2508959;54;21747;-68
2023/12/30 11:40:09;;;;;;;2.78;1.00;;;16.00;69.00;;;;;;2280640;56;21551;-69
2023/12/30 11:42:35;;;;;;;2.78;1.20;;;16.10;69.00;;;;;;2281085;55;20944;-69
2023/12/30 11:45:04;;;;;;;3.45;1.12;;;16.10;69.00;;;;;;2483578;55;21015;-68
2023/12/30 11:47:31;;;;;;;3.15;1.40;;;16.10;68.80;;;;;;2256062;56;20958;-69
2023/12/30 11:50:04;;;;;;;3.50;1.10;;;16.20;68.70;;;;;;2255391;56;20963;-68
2023/12/30 11:52:31;;;;;;;2.50;0.90;;;16.20;68.40;;;;;;2483469;54;20982;-69
2023/12/30 11:54:58;;;;;;;2.90;1.12;;;16.20;68.70;;;;;;2256022;56;21046;-69
2023/12/30 11:57:26;;;;;;;3.83;1.10;;;16.20;68.70;;;;;;2255938;55;21110;-69
2023/12/30 11:59:52;;;;;;;3.50;1.05;;;16.30;68.70;;;;;;2483347;55;21031;-69
2023/12/30 12:02:21;;;;;;;2.62;1.05;;;16.30;68.70;;;;;;2255392;55;20958;-69
2023/12/30 12:04:47;;;;;;;3.00;1.25;;;16.30;68.60;;;;;;2260686;55;20959;-69
2023/12/30 12:07:14;;;;;;;3.85;1.45;;;16.30;68.50;;;;;;2260631;56;20931;-68
2023/12/30 12:09:42;;;;;;;2.78;1.33;;;16.30;68.40;;;;;;2260013;55;20946;-69
2023/12/30 12:12:10;;;;;;;4.10;1.37;;;16.40;68.30;;;;;;2261042;55;21792;-69
2023/12/30 12:14:37;;;;;;;2.60;1.17;;;16.40;68.00;;;;;;2483685;55;20991;-68
2023/12/30 12:17:06;;;;;;;3.40;1.42;;;16.40;67.90;;;;;;2256740;56;20943;-69
2023/12/30 12:19:35;;;;;;;3.20;1.58;;;16.40;67.90;;;;;;2256201;55;20966;-67
2023/12/30 12:22:04;;;;;;;3.58;1.77;;;16.40;68.00;;;;;;2261388;56;20954;-69
2023/12/30 12:24:31;;;;;;;3.42;1.73;;;16.40;68.00;;;;;;2256104;54;20954;-69
2023/12/30 12:26:58;;;;;;;3.47;1.58;;;16.40;67.90;;;;;;2260967;56;20955;-69
2023/12/30 12:29:24;;;;;;;2.97;1.45;;;16.40;67.90;;;;;;2482971;55;20967;-69
2023/12/30 12:31:52;;;;;;;4.87;1.73;;;16.40;67.70;;;;;;2261438;56;21030;-69
2023/12/30 12:34:20;;;;;;;3.85;1.50;;;16.40;67.80;;;;;;2263553;55;20972;-68
2023/12/30 12:36:47;;;;;;;5.50;1.95;;;16.40;67.80;;;;;;2266224;56;20979;-69
2023/12/30 12:39:14;;;;;;;5.32;2.00;;;16.40;67.80;;;;;;2261401;56;20970;-68
2023/12/30 12:41:40;;;;;;;3.35;1.58;;;16.40;68.60;;;;;;2483954;55;20947;-69
2023/12/30 12:44:07;;;;;;;3.92;1.80;;;16.40;67.90;;;;;;2483540;54;20999;-70
2023/12/30 12:46:33;;;;;;;4.05;1.73;;;16.40;67.90;;;;;;2263873;56;21161;-70
2023/12/30 12:49:03;;;;;;;4.18;1.83;;;16.50;68.00;;;;;;2240395;56;21488;-69
2023/12/30 12:51:32;;;;;;;5.93;1.65;;;16.50;68.00;;;;;;2483359;55;21562;-69